Open Full Screen Window  High Contrast Mode
Wind Gusting 00 knots
05
July 20, 2018 3:48 AM CDT
Weather Information
Wind Direction
  250 °
Wind Speed
  05 kt (6 mph)
Wind Gust
  00 kt (0 mph)
Altimeter
29.84 in
Visibility
10 SM
Temperature
18° C
64° F
Dewpoint
17° C
63° F
Humidity
94%
1hr Rain Fall
00.00 in.
24hr Rain Fall
00.20 in.
Sky Condition
Broken @ 11,000 ft
VFR

METAR KBJI 200848Z AUTO 25005KT 10SM BKN110 18/17 A2984 RMK AO2 T01760171

FAA Disclaimer: The data displayed is for advisory purposes only and is not to be used for flight planning or operations.